Charlack, Missouri
Current Conditions -  °F | °C
As of 5:51 AM on Saturday 25 Oct 2014 (Local Time) from KSTL Reporting Station
Scattered Clouds Scattered Clouds  
Wind Chill: 59°   Ceiling: Unl
Heat Index: 59°   Visibility: 7mi
Dew Point: 56°   Wind: 3mph
Humidity: 90%   Direction: 270°W
Pressure: 30.01"   Gusts: NA
Location:  38.702°N, 90.3628°W
Report Text: KSTL 251051Z 27003KT 7SM SCT250 15/13 A3001 RMK AO2 SLP157 T01500133
Loading
Personal Weather Stations






























Interactive Weather Map New forecast layout! Learn more

10-Day Weather Forecast

Advertisements
Track Severe Weather on mobile